sensor_id;sensor_type;location;lat;lon;timestamp;temperature;humidity
5588;DHT22;2816;49.778;9.986;2022-07-03T00:01:33;17.70;96.90
5588;DHT22;2816;49.778;9.986;2022-07-03T00:04:00;17.70;97.10
5588;DHT22;2816;49.778;9.986;2022-07-03T00:06:29;17.70;97.10
5588;DHT22;2816;49.778;9.986;2022-07-03T00:08:58;17.70;97.30
5588;DHT22;2816;49.778;9.986;2022-07-03T00:11:25;17.70;97.50
5588;DHT22;2816;49.778;9.986;2022-07-03T00:13:52;17.70;97.60
5588;DHT22;2816;49.778;9.986;2022-07-03T00:16:19;17.60;97.70
5588;DHT22;2816;49.778;9.986;2022-07-03T00:18:46;17.60;97.80
5588;DHT22;2816;49.778;9.986;2022-07-03T00:21:19;17.50;98.10
5588;DHT22;2816;49.778;9.986;2022-07-03T00:23:52;17.40;98.10
5588;DHT22;2816;49.778;9.986;2022-07-03T00:26:20;17.30;98.40
5588;DHT22;2816;49.778;9.986;2022-07-03T00:28:48;17.30;98.60
5588;DHT22;2816;49.778;9.986;2022-07-03T00:31:16;17.20;99.00
5588;DHT22;2816;49.778;9.986;2022-07-03T00:33:43;17.10;99.50
5588;DHT22;2816;49.778;9.986;2022-07-03T00:36:11;17.10;99.60
5588;DHT22;2816;49.778;9.986;2022-07-03T00:38:39;17.10;99.90
5588;DHT22;2816;49.778;9.986;2022-07-03T00:41:08;17.20;99.90
5588;DHT22;2816;49.778;9.986;2022-07-03T00:43:50;17.10;99.90
5588;DHT22;2816;49.778;9.986;2022-07-03T00:46:17;17.10;99.90
5588;DHT22;2816;49.778;9.986;2022-07-03T00:48:49;17.10;99.90
5588;DHT22;2816;49.778;9.986;2022-07-03T00:51:20;17.10;99.90
5588;DHT22;2816;49.778;9.986;2022-07-03T00:53:49;17.10;99.90
5588;DHT22;2816;49.778;9.986;2022-07-03T00:56:20;17.10;99.90
5588;DHT22;2816;49.778;9.986;2022-07-03T00:58:51;17.00;99.90
5588;DHT22;2816;49.778;9.986;2022-07-03T01:01:19;17.00;99.90
5588;DHT22;2816;49.778;9.986;2022-07-03T01:03:49;17.00;99.90
5588;DHT22;2816;49.778;9.986;2022-07-03T01:06:21;16.90;99.90
5588;DHT22;2816;49.778;9.986;2022-07-03T01:08:50;16.80;99.90
5588;DHT22;2816;49.778;9.986;2022-07-03T01:11:24;16.80;99.90
5588;DHT22;2816;49.778;9.986;2022-07-03T01:14:12;16.80;99.90
5588;DHT22;2816;49.778;9.986;2022-07-03T01:16:55;16.80;99.90
5588;DHT22;2816;49.778;9.986;2022-07-03T01:19:36;16.80;99.90
5588;DHT22;2816;49.778;9.986;2022-07-03T01:22:22;16.80;99.90
5588;DHT22;2816;49.778;9.986;2022-07-03T01:25:05;16.70;99.90
5588;DHT22;2816;49.778;9.986;2022-07-03T01:30:29;16.70;99.90
5588;DHT22;2816;49.778;9.986;2022-07-03T01:32:59;16.60;99.90
5588;DHT22;2816;49.778;9.986;2022-07-03T01:35:32;16.60;99.90
5588;DHT22;2816;49.778;9.986;2022-07-03T01:38:03;16.50;99.90
5588;DHT22;2816;49.778;9.986;2022-07-03T01:40:32;16.50;99.90
5588;DHT22;2816;49.778;9.986;2022-07-03T01:43:02;16.50;99.90
5588;DHT22;2816;49.778;9.986;2022-07-03T01:45:31;16.40;99.90
5588;DHT22;2816;49.778;9.986;2022-07-03T01:47:59;16.40;99.90
5588;DHT22;2816;49.778;9.986;2022-07-03T01:50:28;16.40;99.90
5588;DHT22;2816;49.778;9.986;2022-07-03T01:52:56;16.40;99.90
5588;DHT22;2816;49.778;9.986;2022-07-03T01:55:24;16.40;99.90
5588;DHT22;2816;49.778;9.986;2022-07-03T01:57:51;16.40;99.90
5588;DHT22;2816;49.778;9.986;2022-07-03T02:00:21;16.40;99.90
5588;DHT22;2816;49.778;9.986;2022-07-03T02:02:54;16.40;99.90
5588;DHT22;2816;49.778;9.986;2022-07-03T02:05:29;16.30;99.90
5588;DHT22;2816;49.778;9.986;2022-07-03T02:08:03;16.30;99.90
5588;DHT22;2816;49.778;9.986;2022-07-03T02:10:37;16.30;99.90
5588;DHT22;2816;49.778;9.986;2022-07-03T02:13:08;16.30;99.90
5588;DHT22;2816;49.778;9.986;2022-07-03T02:15:43;16.20;99.90
5588;DHT22;2816;49.778;9.986;2022-07-03T02:18:15;16.30;99.90
5588;DHT22;2816;49.778;9.986;2022-07-03T02:20:56;16.20;99.90
5588;DHT22;2816;49.778;9.986;2022-07-03T02:23:31;16.20;99.90
5588;DHT22;2816;49.778;9.986;2022-07-03T02:26:03;16.20;99.90
5588;DHT22;2816;49.778;9.986;2022-07-03T02:28:39;16.10;99.90
5588;DHT22;2816;49.778;9.986;2022-07-03T02:31:10;16.10;99.90
5588;DHT22;2816;49.778;9.986;2022-07-03T02:33:41;16.10;99.90
5588;DHT22;2816;49.778;9.986;2022-07-03T02:36:10;16.00;99.90
5588;DHT22;2816;49.778;9.986;2022-07-03T02:38:40;16.00;99.90
5588;DHT22;2816;49.778;9.986;2022-07-03T02:41:15;16.00;99.90
5588;DHT22;2816;49.778;9.986;2022-07-03T02:43:52;16.00;99.90
5588;DHT22;2816;49.778;9.986;2022-07-03T02:46:32;16.00;99.90
5588;DHT22;2816;49.778;9.986;2022-07-03T02:49:22;15.90;99.90
5588;DHT22;2816;49.778;9.986;2022-07-03T02:52:02;15.90;99.90
5588;DHT22;2816;49.778;9.986;2022-07-03T02:54:42;15.90;99.90
5588;DHT22;2816;49.778;9.986;2022-07-03T02:57:09;15.80;99.90
5588;DHT22;2816;49.778;9.986;2022-07-03T02:59:45;15.80;99.90
5588;DHT22;2816;49.778;9.986;2022-07-03T03:02:25;15.80;99.90
5588;DHT22;2816;49.778;9.986;2022-07-03T03:05:06;15.80;99.90
5588;DHT22;2816;49.778;9.986;2022-07-03T03:07:40;15.80;99.90
5588;DHT22;2816;49.778;9.986;2022-07-03T03:10:12;15.80;99.90
5588;DHT22;2816;49.778;9.986;2022-07-03T03:12:43;15.70;99.90
5588;DHT22;2816;49.778;9.986;2022-07-03T03:15:13;15.70;99.90
5588;DHT22;2816;49.778;9.986;2022-07-03T03:17:43;15.70;99.90
5588;DHT22;2816;49.778;9.986;2022-07-03T03:20:14;15.70;99.90
5588;DHT22;2816;49.778;9.986;2022-07-03T03:22:58;15.70;99.90
5588;DHT22;2816;49.778;9.986;2022-07-03T03:25:26;15.60;99.90
5588;DHT22;2816;49.778;9.986;2022-07-03T03:27:53;15.60;99.90
5588;DHT22;2816;49.778;9.986;2022-07-03T03:30:21;15.60;99.90
5588;DHT22;2816;49.778;9.986;2022-07-03T03:32:49;15.60;99.90
5588;DHT22;2816;49.778;9.986;2022-07-03T03:35:16;15.60;99.90
5588;DHT22;2816;49.778;9.986;2022-07-03T03:37:44;15.50;99.90
5588;DHT22;2816;49.778;9.986;2022-07-03T03:40:15;15.50;99.90
5588;DHT22;2816;49.778;9.986;2022-07-03T03:42:42;15.50;99.90
5588;DHT22;2816;49.778;9.986;2022-07-03T03:45:10;15.50;99.90
5588;DHT22;2816;49.778;9.986;2022-07-03T03:47:37;15.50;99.90
5588;DHT22;2816;49.778;9.986;2022-07-03T03:50:06;15.50;99.90
5588;DHT22;2816;49.778;9.986;2022-07-03T03:52:34;15.50;99.90
5588;DHT22;2816;49.778;9.986;2022-07-03T03:55:01;15.50;99.90
5588;DHT22;2816;49.778;9.986;2022-07-03T03:57:27;15.50;99.90
5588;DHT22;2816;49.778;9.986;2022-07-03T03:59:55;15.50;99.90
5588;DHT22;2816;49.778;9.986;2022-07-03T04:02:23;15.50;99.90
5588;DHT22;2816;49.778;9.986;2022-07-03T04:04:50;15.50;99.90
5588;DHT22;2816;49.778;9.986;2022-07-03T04:07:18;15.50;99.90
5588;DHT22;2816;49.778;9.986;2022-07-03T04:09:45;15.50;99.90
5588;DHT22;2816;49.778;9.986;2022-07-03T04:12:12;15.50;99.90
5588;DHT22;2816;49.778;9.986;2022-07-03T04:14:40;15.50;99.90
5588;DHT22;2816;49.778;9.986;2022-07-03T04:17:07;15.50;99.90
5588;DHT22;2816;49.778;9.986;2022-07-03T04:19:34;15.50;99.90
5588;DHT22;2816;49.778;9.986;2022-07-03T04:22:02;15.60;99.90
5588;DHT22;2816;49.778;9.986;2022-07-03T04:24:35;15.60;99.90
5588;DHT22;2816;49.778;9.986;2022-07-03T04:27:02;15.60;99.90
5588;DHT22;2816;49.778;9.986;2022-07-03T04:29:29;15.60;99.90
5588;DHT22;2816;49.778;9.986;2022-07-03T04:31:56;15.50;99.90
5588;DHT22;2816;49.778;9.986;2022-07-03T04:34:23;15.50;99.90
5588;DHT22;2816;49.778;9.986;2022-07-03T04:36:50;15.60;99.90
5588;DHT22;2816;49.778;9.986;2022-07-03T04:39:17;15.60;99.90
5588;DHT22;2816;49.778;9.986;2022-07-03T04:41:46;15.60;99.90
5588;DHT22;2816;49.778;9.986;2022-07-03T04:44:13;15.60;99.90
5588;DHT22;2816;49.778;9.986;2022-07-03T04:46:40;15.60;99.90
5588;DHT22;2816;49.778;9.986;2022-07-03T04:49:07;15.70;99.90
5588;DHT22;2816;49.778;9.986;2022-07-03T04:51:34;15.70;99.90
5588;DHT22;2816;49.778;9.986;2022-07-03T04:54:01;15.70;99.90
5588;DHT22;2816;49.778;9.986;2022-07-03T04:56:28;15.70;99.90
5588;DHT22;2816;49.778;9.986;2022-07-03T04:58:56;15.70;99.90
5588;DHT22;2816;49.778;9.986;2022-07-03T05:01:23;15.80;99.90
5588;DHT22;2816;49.778;9.986;2022-07-03T05:03:50;15.80;99.90
5588;DHT22;2816;49.778;9.986;2022-07-03T05:06:17;15.80;99.90
5588;DHT22;2816;49.778;9.986;2022-07-03T05:08:44;15.90;99.90
5588;DHT22;2816;49.778;9.986;2022-07-03T05:11:10;15.90;99.90
5588;DHT22;2816;49.778;9.986;2022-07-03T05:13:37;15.90;99.90
5588;DHT22;2816;49.778;9.986;2022-07-03T05:16:06;16.00;99.90
5588;DHT22;2816;49.778;9.986;2022-07-03T05:18:33;16.00;99.90
5588;DHT22;2816;49.778;9.986;2022-07-03T05:21:01;16.10;99.90
5588;DHT22;2816;49.778;9.986;2022-07-03T05:23:28;16.20;99.90
5588;DHT22;2816;49.778;9.986;2022-07-03T05:25:55;16.20;99.90
5588;DHT22;2816;49.778;9.986;2022-07-03T05:28:24;16.30;99.90
5588;DHT22;2816;49.778;9.986;2022-07-03T05:30:51;16.40;99.90
5588;DHT22;2816;49.778;9.986;2022-07-03T05:33:19;16.40;99.90
5588;DHT22;2816;49.778;9.986;2022-07-03T05:35:46;16.50;99.90
5588;DHT22;2816;49.778;9.986;2022-07-03T05:38:13;16.50;99.90
5588;DHT22;2816;49.778;9.986;2022-07-03T05:41:00;16.60;99.90
5588;DHT22;2816;49.778;9.986;2022-07-03T05:43:26;16.70;99.90
5588;DHT22;2816;49.778;9.986;2022-07-03T05:45:53;16.80;99.90
5588;DHT22;2816;49.778;9.986;2022-07-03T05:48:21;16.90;99.90
5588;DHT22;2816;49.778;9.986;2022-07-03T05:50:48;16.80;99.90
5588;DHT22;2816;49.778;9.986;2022-07-03T05:53:15;16.90;99.90
5588;DHT22;2816;49.778;9.986;2022-07-03T05:55:42;16.90;99.90
5588;DHT22;2816;49.778;9.986;2022-07-03T05:58:09;17.00;99.90
5588;DHT22;2816;49.778;9.986;2022-07-03T06:00:36;17.00;99.90
5588;DHT22;2816;49.778;9.986;2022-07-03T06:03:03;17.10;99.90
5588;DHT22;2816;49.778;9.986;2022-07-03T06:05:31;17.20;99.90
5588;DHT22;2816;49.778;9.986;2022-07-03T06:07:59;17.30;99.90
5588;DHT22;2816;49.778;9.986;2022-07-03T06:10:27;17.30;99.90
5588;DHT22;2816;49.778;9.986;2022-07-03T06:12:54;17.40;99.90
5588;DHT22;2816;49.778;9.986;2022-07-03T06:15:21;17.50;99.90
5588;DHT22;2816;49.778;9.986;2022-07-03T06:17:48;17.50;99.90
5588;DHT22;2816;49.778;9.986;2022-07-03T06:20:15;17.60;99.90
5588;DHT22;2816;49.778;9.986;2022-07-03T06:22:44;17.70;99.90
5588;DHT22;2816;49.778;9.986;2022-07-03T06:25:11;17.70;99.90
5588;DHT22;2816;49.778;9.986;2022-07-03T06:27:38;17.80;99.90
5588;DHT22;2816;49.778;9.986;2022-07-03T06:30:07;17.80;99.90
5588;DHT22;2816;49.778;9.986;2022-07-03T06:32:34;17.90;99.90
5588;DHT22;2816;49.778;9.986;2022-07-03T06:35:01;18.00;99.90
5588;DHT22;2816;49.778;9.986;2022-07-03T06:37:28;18.20;99.90
5588;DHT22;2816;49.778;9.986;2022-07-03T06:39:56;18.20;99.90
5588;DHT22;2816;49.778;9.986;2022-07-03T06:42:23;18.40;99.90
5588;DHT22;2816;49.778;9.986;2022-07-03T06:44:50;18.40;99.90
5588;DHT22;2816;49.778;9.986;2022-07-03T06:47:17;18.50;99.90
5588;DHT22;2816;49.778;9.986;2022-07-03T06:49:44;18.70;99.90
5588;DHT22;2816;49.778;9.986;2022-07-03T06:52:11;18.90;99.90
5588;DHT22;2816;49.778;9.986;2022-07-03T06:54:38;19.00;99.90
5588;DHT22;2816;49.778;9.986;2022-07-03T06:57:10;19.00;99.90
5588;DHT22;2816;49.778;9.986;2022-07-03T06:59:37;19.10;99.90
5588;DHT22;2816;49.778;9.986;2022-07-03T07:02:04;19.20;99.90
5588;DHT22;2816;49.778;9.986;2022-07-03T07:04:32;19.20;99.90
5588;DHT22;2816;49.778;9.986;2022-07-03T07:06:59;19.30;99.90
5588;DHT22;2816;49.778;9.986;2022-07-03T07:09:26;19.50;99.90
5588;DHT22;2816;49.778;9.986;2022-07-03T07:11:53;19.50;99.90
5588;DHT22;2816;49.778;9.986;2022-07-03T07:14:21;19.60;99.90
5588;DHT22;2816;49.778;9.986;2022-07-03T07:16:48;19.70;99.90
5588;DHT22;2816;49.778;9.986;2022-07-03T07:19:15;19.80;99.90
5588;DHT22;2816;49.778;9.986;2022-07-03T07:21:42;19.90;99.90
5588;DHT22;2816;49.778;9.986;2022-07-03T07:24:09;19.90;99.90
5588;DHT22;2816;49.778;9.986;2022-07-03T07:26:36;20.10;99.90
5588;DHT22;2816;49.778;9.986;2022-07-03T07:29:03;20.10;99.90
5588;DHT22;2816;49.778;9.986;2022-07-03T07:31:32;20.30;99.90
5588;DHT22;2816;49.778;9.986;2022-07-03T07:33:59;20.40;99.90
5588;DHT22;2816;49.778;9.986;2022-07-03T07:36:29;20.60;99.90
5588;DHT22;2816;49.778;9.986;2022-07-03T07:38:56;20.80;99.90
5588;DHT22;2816;49.778;9.986;2022-07-03T07:41:23;21.00;99.90
5588;DHT22;2816;49.778;9.986;2022-07-03T07:43:50;21.10;99.90
5588;DHT22;2816;49.778;9.986;2022-07-03T07:46:17;21.10;99.90
5588;DHT22;2816;49.778;9.986;2022-07-03T07:48:46;21.20;99.90
5588;DHT22;2816;49.778;9.986;2022-07-03T07:51:12;21.20;99.90
5588;DHT22;2816;49.778;9.986;2022-07-03T07:53:39;21.20;99.90
5588;DHT22;2816;49.778;9.986;2022-07-03T07:56:06;21.30;99.90
5588;DHT22;2816;49.778;9.986;2022-07-03T07:58:33;21.30;99.90
5588;DHT22;2816;49.778;9.986;2022-07-03T08:01:00;21.50;99.90
5588;DHT22;2816;49.778;9.986;2022-07-03T08:03:45;21.70;99.90
5588;DHT22;2816;49.778;9.986;2022-07-03T08:06:29;21.80;99.90
5588;DHT22;2816;49.778;9.986;2022-07-03T08:08:56;21.80;99.90
5588;DHT22;2816;49.778;9.986;2022-07-03T08:11:23;21.80;99.90
5588;DHT22;2816;49.778;9.986;2022-07-03T08:13:50;22.10;99.80
5588;DHT22;2816;49.778;9.986;2022-07-03T08:16:17;22.20;99.90
5588;DHT22;2816;49.778;9.986;2022-07-03T08:18:45;22.30;99.90
5588;DHT22;2816;49.778;9.986;2022-07-03T08:21:12;22.50;99.90
5588;DHT22;2816;49.778;9.986;2022-07-03T08:23:39;22.60;99.20
5588;DHT22;2816;49.778;9.986;2022-07-03T08:26:06;22.80;98.90
5588;DHT22;2816;49.778;9.986;2022-07-03T08:28:33;23.00;98.40
5588;DHT22;2816;49.778;9.986;2022-07-03T08:31:00;22.90;98.60
5588;DHT22;2816;49.778;9.986;2022-07-03T08:33:27;23.00;99.10
5588;DHT22;2816;49.778;9.986;2022-07-03T08:35:55;23.10;97.60
5588;DHT22;2816;49.778;9.986;2022-07-03T08:38:28;23.20;97.70
5588;DHT22;2816;49.778;9.986;2022-07-03T08:40:57;23.30;97.50
5588;DHT22;2816;49.778;9.986;2022-07-03T08:43:24;23.40;97.30
5588;DHT22;2816;49.778;9.986;2022-07-03T08:45:52;23.40;96.70
5588;DHT22;2816;49.778;9.986;2022-07-03T08:48:21;23.60;96.20
5588;DHT22;2816;49.778;9.986;2022-07-03T08:50:50;23.60;96.60
5588;DHT22;2816;49.778;9.986;2022-07-03T08:53:19;23.80;96.80
5588;DHT22;2816;49.778;9.986;2022-07-03T08:55:48;24.10;95.50
5588;DHT22;2816;49.778;9.986;2022-07-03T08:58:15;24.10;95.40
5588;DHT22;2816;49.778;9.986;2022-07-03T09:00:45;24.00;95.00
5588;DHT22;2816;49.778;9.986;2022-07-03T09:03:14;24.10;94.40
5588;DHT22;2816;49.778;9.986;2022-07-03T09:05:41;24.30;94.80
5588;DHT22;2816;49.778;9.986;2022-07-03T09:08:09;24.40;94.20
5588;DHT22;2816;49.778;9.986;2022-07-03T09:10:38;24.40;94.80
5588;DHT22;2816;49.778;9.986;2022-07-03T09:13:05;24.50;93.60
5588;DHT22;2816;49.778;9.986;2022-07-03T09:15:32;24.50;94.70
5588;DHT22;2816;49.778;9.986;2022-07-03T09:18:00;24.70;94.10
5588;DHT22;2816;49.778;9.986;2022-07-03T09:20:32;25.00;93.00
5588;DHT22;2816;49.778;9.986;2022-07-03T09:23:10;25.30;92.40
5588;DHT22;2816;49.778;9.986;2022-07-03T09:25:52;25.20;91.80
5588;DHT22;2816;49.778;9.986;2022-07-03T09:28:20;25.20;91.50
5588;DHT22;2816;49.778;9.986;2022-07-03T09:30:57;25.30;92.70
5588;DHT22;2816;49.778;9.986;2022-07-03T09:33:25;25.30;91.70
5588;DHT22;2816;49.778;9.986;2022-07-03T09:35:53;25.50;92.00
5588;DHT22;2816;49.778;9.986;2022-07-03T09:38:21;25.60;91.10
5588;DHT22;2816;49.778;9.986;2022-07-03T09:40:51;25.90;89.80
5588;DHT22;2816;49.778;9.986;2022-07-03T09:43:22;26.00;90.50
5588;DHT22;2816;49.778;9.986;2022-07-03T09:45:53;26.10;89.20
5588;DHT22;2816;49.778;9.986;2022-07-03T09:48:24;26.10;86.70
5588;DHT22;2816;49.778;9.986;2022-07-03T09:51:13;26.10;86.90
5588;DHT22;2816;49.778;9.986;2022-07-03T09:53:58;26.20;85.70
5588;DHT22;2816;49.778;9.986;2022-07-03T09:56:32;26.10;85.30
5588;DHT22;2816;49.778;9.986;2022-07-03T09:59:08;26.20;85.70
5588;DHT22;2816;49.778;9.986;2022-07-03T10:01:36;26.50;85.80
5588;DHT22;2816;49.778;9.986;2022-07-03T10:04:15;26.60;84.70
5588;DHT22;2816;49.778;9.986;2022-07-03T10:06:53;26.50;82.60
5588;DHT22;2816;49.778;9.986;2022-07-03T10:09:22;26.60;80.50
5588;DHT22;2816;49.778;9.986;2022-07-03T10:11:51;26.80;83.20
5588;DHT22;2816;49.778;9.986;2022-07-03T10:14:20;26.90;78.70
5588;DHT22;2816;49.778;9.986;2022-07-03T10:16:48;26.90;78.10
5588;DHT22;2816;49.778;9.986;2022-07-03T10:19:17;27.10;80.40
5588;DHT22;2816;49.778;9.986;2022-07-03T10:21:49;26.90;77.00
5588;DHT22;2816;49.778;9.986;2022-07-03T10:24:18;26.80;81.20
5588;DHT22;2816;49.778;9.986;2022-07-03T10:26:46;27.00;80.10
5588;DHT22;2816;49.778;9.986;2022-07-03T10:29:15;27.20;76.80
5588;DHT22;2816;49.778;9.986;2022-07-03T10:31:46;27.20;78.50
5588;DHT22;2816;49.778;9.986;2022-07-03T10:34:18;27.30;76.40
5588;DHT22;2816;49.778;9.986;2022-07-03T10:36:47;27.50;76.20
5588;DHT22;2816;49.778;9.986;2022-07-03T10:39:24;27.90;77.50
5588;DHT22;2816;49.778;9.986;2022-07-03T10:41:55;28.00;75.50
5588;DHT22;2816;49.778;9.986;2022-07-03T10:45:04;28.00;74.90
5588;DHT22;2816;49.778;9.986;2022-07-03T10:47:39;28.40;76.10
5588;DHT22;2816;49.778;9.986;2022-07-03T10:50:08;28.60;73.80
5588;DHT22;2816;49.778;9.986;2022-07-03T10:52:36;28.50;72.40
5588;DHT22;2816;49.778;9.986;2022-07-03T10:55:04;28.80;71.20
5588;DHT22;2816;49.778;9.986;2022-07-03T10:57:33;29.00;71.10
5588;DHT22;2816;49.778;9.986;2022-07-03T11:00:23;29.00;69.50
5588;DHT22;2816;49.778;9.986;2022-07-03T11:02:51;29.30;70.30
5588;DHT22;2816;49.778;9.986;2022-07-03T11:05:23;29.30;71.50
5588;DHT22;2816;49.778;9.986;2022-07-03T11:08:09;29.50;69.90
5588;DHT22;2816;49.778;9.986;2022-07-03T11:10:41;29.60;68.20
5588;DHT22;2816;49.778;9.986;2022-07-03T11:13:19;29.00;68.50
5588;DHT22;2816;49.778;9.986;2022-07-03T11:15:51;28.70;68.70
5588;DHT22;2816;49.778;9.986;2022-07-03T11:18:26;28.60;69.40
5588;DHT22;2816;49.778;9.986;2022-07-03T11:24:38;28.90;67.20
5588;DHT22;2816;49.778;9.986;2022-07-03T11:27:26;29.30;70.20
5588;DHT22;2816;49.778;9.986;2022-07-03T11:29:57;29.40;70.30
5588;DHT22;2816;49.778;9.986;2022-07-03T11:32:44;29.70;66.90
5588;DHT22;2816;49.778;9.986;2022-07-03T11:35:49;29.60;65.90
5588;DHT22;2816;49.778;9.986;2022-07-03T11:38:23;29.70;64.80
5588;DHT22;2816;49.778;9.986;2022-07-03T11:40:52;30.00;65.20
5588;DHT22;2816;49.778;9.986;2022-07-03T11:43:19;30.10;64.80
5588;DHT22;2816;49.778;9.986;2022-07-03T11:45:47;29.90;63.10
5588;DHT22;2816;49.778;9.986;2022-07-03T11:48:18;30.20;62.70
5588;DHT22;2816;49.778;9.986;2022-07-03T11:50:46;30.20;63.50
5588;DHT22;2816;49.778;9.986;2022-07-03T11:53:20;30.20;62.30
5588;DHT22;2816;49.778;9.986;2022-07-03T11:55:49;30.40;61.70
5588;DHT22;2816;49.778;9.986;2022-07-03T11:58:16;30.70;61.70
5588;DHT22;2816;49.778;9.986;2022-07-03T12:00:43;30.60;63.80
5588;DHT22;2816;49.778;9.986;2022-07-03T12:03:19;31.10;60.50
5588;DHT22;2816;49.778;9.986;2022-07-03T12:05:55;31.10;59.70
5588;DHT22;2816;49.778;9.986;2022-07-03T12:08:29;31.00;61.50
5588;DHT22;2816;49.778;9.986;2022-07-03T12:10:59;31.10;60.80
5588;DHT22;2816;49.778;9.986;2022-07-03T12:13:26;31.30;60.60
5588;DHT22;2816;49.778;9.986;2022-07-03T12:16:01;31.20;58.60
5588;DHT22;2816;49.778;9.986;2022-07-03T12:18:41;31.20;58.40
5588;DHT22;2816;49.778;9.986;2022-07-03T12:21:08;31.30;59.50
5588;DHT22;2816;49.778;9.986;2022-07-03T12:23:41;31.10;59.80
5588;DHT22;2816;49.778;9.986;2022-07-03T12:26:08;31.20;57.90
5588;DHT22;2816;49.778;9.986;2022-07-03T12:28:35;31.10;59.80
5588;DHT22;2816;49.778;9.986;2022-07-03T12:31:02;30.70;57.00
5588;DHT22;2816;49.778;9.986;2022-07-03T12:33:30;30.60;60.10
5588;DHT22;2816;49.778;9.986;2022-07-03T12:36:06;30.80;58.60
5588;DHT22;2816;49.778;9.986;2022-07-03T12:38:36;30.90;58.80
5588;DHT22;2816;49.778;9.986;2022-07-03T12:41:04;31.30;58.00
5588;DHT22;2816;49.778;9.986;2022-07-03T12:43:38;31.60;57.10
5588;DHT22;2816;49.778;9.986;2022-07-03T12:46:16;31.90;55.80
5588;DHT22;2816;49.778;9.986;2022-07-03T12:48:48;31.60;55.30
5588;DHT22;2816;49.778;9.986;2022-07-03T12:51:35;31.60;55.60
5588;DHT22;2816;49.778;9.986;2022-07-03T12:54:03;32.10;55.10
5588;DHT22;2816;49.778;9.986;2022-07-03T12:56:30;32.10;55.70
5588;DHT22;2816;49.778;9.986;2022-07-03T12:58:57;32.00;54.90
5588;DHT22;2816;49.778;9.986;2022-07-03T13:01:41;31.70;55.20
5588;DHT22;2816;49.778;9.986;2022-07-03T13:04:08;31.70;56.20
5588;DHT22;2816;49.778;9.986;2022-07-03T13:06:41;31.90;55.80
5588;DHT22;2816;49.778;9.986;2022-07-03T13:09:11;32.30;54.20
5588;DHT22;2816;49.778;9.986;2022-07-03T13:11:39;32.40;54.70
5588;DHT22;2816;49.778;9.986;2022-07-03T13:14:09;32.30;54.10
5588;DHT22;2816;49.778;9.986;2022-07-03T13:16:37;32.20;52.10
5588;DHT22;2816;49.778;9.986;2022-07-03T13:19:06;32.30;54.20
5588;DHT22;2816;49.778;9.986;2022-07-03T13:21:33;32.30;53.50
5588;DHT22;2816;49.778;9.986;2022-07-03T13:24:02;32.40;53.10
5588;DHT22;2816;49.778;9.986;2022-07-03T13:26:29;32.20;53.50
5588;DHT22;2816;49.778;9.986;2022-07-03T13:28:56;32.20;52.80
5588;DHT22;2816;49.778;9.986;2022-07-03T13:31:24;32.00;53.90
5588;DHT22;2816;49.778;9.986;2022-07-03T13:33:51;31.90;54.30
5588;DHT22;2816;49.778;9.986;2022-07-03T13:36:18;31.80;53.80
5588;DHT22;2816;49.778;9.986;2022-07-03T13:38:45;32.20;53.00
5588;DHT22;2816;49.778;9.986;2022-07-03T13:41:13;32.30;53.40
5588;DHT22;2816;49.778;9.986;2022-07-03T13:43:40;32.40;53.70
5588;DHT22;2816;49.778;9.986;2022-07-03T13:46:07;32.20;53.70
5588;DHT22;2816;49.778;9.986;2022-07-03T13:48:34;32.70;53.80
5588;DHT22;2816;49.778;9.986;2022-07-03T13:51:01;32.10;52.70
5588;DHT22;2816;49.778;9.986;2022-07-03T13:53:28;32.50;51.30
5588;DHT22;2816;49.778;9.986;2022-07-03T13:55:56;32.60;52.10
5588;DHT22;2816;49.778;9.986;2022-07-03T13:58:25;32.50;51.50
5588;DHT22;2816;49.778;9.986;2022-07-03T14:00:54;32.70;52.60
5588;DHT22;2816;49.778;9.986;2022-07-03T14:03:21;33.10;51.50
5588;DHT22;2816;49.778;9.986;2022-07-03T14:05:48;33.20;51.20
5588;DHT22;2816;49.778;9.986;2022-07-03T14:08:17;32.70;52.90
5588;DHT22;2816;49.778;9.986;2022-07-03T14:10:44;32.50;52.80
5588;DHT22;2816;49.778;9.986;2022-07-03T14:13:11;32.30;53.50
5588;DHT22;2816;49.778;9.986;2022-07-03T14:15:39;32.20;53.10
5588;DHT22;2816;49.778;9.986;2022-07-03T14:18:06;32.60;52.50
5588;DHT22;2816;49.778;9.986;2022-07-03T14:20:33;32.80;50.80
5588;DHT22;2816;49.778;9.986;2022-07-03T14:23:00;33.00;51.00
5588;DHT22;2816;49.778;9.986;2022-07-03T14:25:27;33.20;50.40
5588;DHT22;2816;49.778;9.986;2022-07-03T14:27:54;33.20;49.90
5588;DHT22;2816;49.778;9.986;2022-07-03T14:30:39;33.10;50.60
5588;DHT22;2816;49.778;9.986;2022-07-03T14:33:24;33.10;49.80
5588;DHT22;2816;49.778;9.986;2022-07-03T14:35:51;33.00;50.90
5588;DHT22;2816;49.778;9.986;2022-07-03T14:38:19;33.00;50.60
5588;DHT22;2816;49.778;9.986;2022-07-03T14:40:46;32.90;49.90
5588;DHT22;2816;49.778;9.986;2022-07-03T14:43:13;32.80;50.10
5588;DHT22;2816;49.778;9.986;2022-07-03T14:45:41;32.80;50.50
5588;DHT22;2816;49.778;9.986;2022-07-03T14:48:08;32.70;50.70
5588;DHT22;2816;49.778;9.986;2022-07-03T14:50:35;32.70;50.30
5588;DHT22;2816;49.778;9.986;2022-07-03T14:53:05;32.80;50.60
5588;DHT22;2816;49.778;9.986;2022-07-03T14:55:36;33.00;49.70
5588;DHT22;2816;49.778;9.986;2022-07-03T14:58:05;32.60;50.50
5588;DHT22;2816;49.778;9.986;2022-07-03T15:00:36;32.60;50.70
5588;DHT22;2816;49.778;9.986;2022-07-03T15:03:15;32.40;50.60
5588;DHT22;2816;49.778;9.986;2022-07-03T15:05:43;32.70;50.50
5588;DHT22;2816;49.778;9.986;2022-07-03T15:08:20;32.60;50.90
5588;DHT22;2816;49.778;9.986;2022-07-03T15:10:53;32.30;49.50
5588;DHT22;2816;49.778;9.986;2022-07-03T15:13:20;32.20;49.70
5588;DHT22;2816;49.778;9.986;2022-07-03T15:15:48;32.50;50.20
5588;DHT22;2816;49.778;9.986;2022-07-03T15:18:18;32.50;50.00
5588;DHT22;2816;49.778;9.986;2022-07-03T15:20:46;32.50;49.60
5588;DHT22;2816;49.778;9.986;2022-07-03T15:23:17;32.40;50.20
5588;DHT22;2816;49.778;9.986;2022-07-03T15:25:47;32.40;50.00
5588;DHT22;2816;49.778;9.986;2022-07-03T15:28:15;32.20;50.90
5588;DHT22;2816;49.778;9.986;2022-07-03T15:30:46;31.90;50.20
5588;DHT22;2816;49.778;9.986;2022-07-03T15:33:14;31.90;51.60
5588;DHT22;2816;49.778;9.986;2022-07-03T15:35:48;31.70;51.70
5588;DHT22;2816;49.778;9.986;2022-07-03T15:38:20;32.10;51.40
5588;DHT22;2816;49.778;9.986;2022-07-03T15:40:53;31.90;50.70
5588;DHT22;2816;49.778;9.986;2022-07-03T15:43:34;32.00;51.30
5588;DHT22;2816;49.778;9.986;2022-07-03T15:46:08;32.10;50.40
5588;DHT22;2816;49.778;9.986;2022-07-03T15:48:44;32.30;50.10
5588;DHT22;2816;49.778;9.986;2022-07-03T15:51:19;32.40;49.90
5588;DHT22;2816;49.778;9.986;2022-07-03T15:53:54;32.20;51.00
5588;DHT22;2816;49.778;9.986;2022-07-03T15:56:25;32.60;50.30
5588;DHT22;2816;49.778;9.986;2022-07-03T15:58:54;32.60;49.40
5588;DHT22;2816;49.778;9.986;2022-07-03T16:01:23;32.30;50.60
5588;DHT22;2816;49.778;9.986;2022-07-03T16:04:10;32.50;50.50
5588;DHT22;2816;49.778;9.986;2022-07-03T16:06:41;32.40;50.50
5588;DHT22;2816;49.778;9.986;2022-07-03T16:09:09;32.00;50.50
5588;DHT22;2816;49.778;9.986;2022-07-03T16:11:36;31.80;51.10
5588;DHT22;2816;49.778;9.986;2022-07-03T16:14:04;31.80;50.90
5588;DHT22;2816;49.778;9.986;2022-07-03T16:16:32;31.90;50.20
5588;DHT22;2816;49.778;9.986;2022-07-03T16:19:03;32.10;50.80
5588;DHT22;2816;49.778;9.986;2022-07-03T16:21:31;32.00;50.80
5588;DHT22;2816;49.778;9.986;2022-07-03T16:24:00;32.30;49.70
5588;DHT22;2816;49.778;9.986;2022-07-03T16:26:29;32.30;50.20
5588;DHT22;2816;49.778;9.986;2022-07-03T16:28:56;32.10;50.30